createdAt,value
2019-05-23T00:01:57.622Z,11.25
2019-05-23T00:04:48.729Z,11.40
2019-05-23T00:07:34.966Z,10.50
2019-05-23T00:10:22.804Z,12.13
2019-05-23T00:13:02.188Z,11.97
2019-05-23T00:15:35.220Z,11.18
2019-05-23T00:18:04.924Z,11.78
2019-05-23T00:20:34.337Z,11.22
2019-05-23T00:23:03.181Z,12.82
2019-05-23T00:25:34.155Z,12.63
2019-05-23T00:28:04.515Z,10.18
2019-05-23T00:30:43.988Z,11.03
2019-05-23T00:33:14.106Z,9.68
2019-05-23T00:35:42.551Z,10.45
2019-05-23T00:38:13.175Z,11.83
2019-05-23T00:40:43.562Z,10.85
2019-05-23T00:43:12.646Z,11.43
2019-05-23T00:45:42.871Z,9.75
2019-05-23T00:48:11.439Z,10.35
2019-05-23T00:50:40.221Z,11.00
2019-05-23T00:53:09.437Z,10.38
2019-05-23T00:55:37.886Z,10.58
2019-05-23T00:58:07.842Z,11.28
2019-05-23T01:00:37.430Z,10.50
2019-05-23T01:03:06.754Z,10.88
2019-05-23T01:05:37.435Z,9.53
2019-05-23T01:08:05.967Z,10.18
2019-05-23T01:10:35.163Z,10.50
2019-05-23T01:13:04.161Z,9.10
2019-05-23T01:15:32.956Z,10.48
2019-05-23T01:18:02.134Z,9.18
2019-05-23T01:20:35.309Z,10.75
2019-05-23T01:23:05.224Z,10.58
2019-05-23T01:25:34.238Z,11.03
2019-05-23T01:28:03.930Z,10.88
2019-05-23T01:30:34.071Z,11.60
2019-05-23T01:33:02.806Z,10.53
2019-05-23T01:35:31.473Z,11.18
2019-05-23T01:38:04.040Z,12.53
2019-05-23T01:40:32.514Z,10.10
2019-05-23T01:43:02.301Z,11.48
2019-05-23T01:45:32.143Z,10.63
2019-05-23T01:48:00.993Z,11.38
2019-05-23T01:50:29.581Z,12.03
2019-05-23T01:52:58.575Z,11.35
2019-05-23T01:55:27.435Z,11.08
2019-05-23T01:57:56.078Z,11.20
2019-05-23T02:00:26.491Z,10.48
2019-05-23T02:02:54.908Z,10.18
2019-05-23T02:05:25.111Z,10.55
2019-05-23T02:07:54.697Z,11.30
2019-05-23T02:10:23.386Z,11.22
2019-05-23T02:12:52.672Z,11.45
2019-05-23T02:15:21.042Z,9.58
2019-05-23T02:17:50.791Z,11.40
2019-05-23T02:20:20.309Z,11.25
2019-05-23T02:22:48.760Z,10.95
2019-05-23T02:25:19.430Z,10.35
2019-05-23T02:27:48.400Z,11.97
2019-05-23T02:30:33.044Z,12.28
2019-05-23T02:32:50.306Z,11.83
2019-05-23T02:35:19.760Z,10.08
2019-05-23T02:37:49.973Z,10.58
2019-05-23T02:40:29.421Z,11.80
2019-05-23T02:42:59.369Z,11.48
2019-05-23T02:45:44.834Z,9.15
2019-05-23T02:48:31.106Z,9.98
2019-05-23T02:51:02.248Z,9.38
2019-05-23T02:53:33.559Z,9.68
2019-05-23T02:56:03.528Z,11.53
2019-05-23T02:58:33.731Z,9.75
2019-05-23T03:01:06.932Z,10.70
2019-05-23T03:03:35.907Z,10.20
2019-05-23T03:06:05.937Z,10.60
2019-05-23T03:08:35.566Z,8.48
2019-05-23T03:11:13.262Z,11.20
2019-05-23T03:13:43.172Z,9.13
2019-05-23T03:16:13.370Z,11.03
2019-05-23T03:18:42.462Z,11.90
2019-05-23T03:21:12.319Z,10.72
2019-05-23T03:23:41.206Z,10.53
2019-05-23T03:26:18.813Z,11.55
2019-05-23T03:28:48.584Z,10.13
2019-05-23T03:31:29.514Z,10.90
2019-05-23T03:33:49.952Z,11.35
2019-05-23T03:36:18.954Z,11.43
2019-05-23T03:38:47.624Z,10.93
2019-05-23T03:41:16.620Z,10.40
2019-05-23T03:43:46.838Z,11.28
2019-05-23T03:46:17.095Z,8.25
2019-05-23T03:48:47.605Z,10.53
2019-05-23T03:51:17.757Z,9.05
2019-05-23T03:53:47.588Z,10.82
2019-05-23T03:56:16.197Z,10.55
2019-05-23T03:58:45.069Z,10.03
2019-05-23T04:01:15.329Z,10.65
2019-05-23T04:03:44.825Z,10.38
2019-05-23T04:06:14.164Z,9.85
2019-05-23T04:08:43.208Z,10.45
2019-05-23T04:11:11.733Z,10.60
2019-05-23T04:13:40.276Z,10.25
2019-05-23T04:16:09.435Z,9.08
2019-05-23T04:18:40.293Z,12.18
2019-05-23T04:21:08.665Z,10.60
2019-05-23T04:23:37.296Z,11.45
2019-05-23T04:26:06.286Z,9.98
2019-05-23T04:28:34.835Z,10.38
2019-05-23T04:31:03.789Z,11.78
2019-05-23T04:33:32.116Z,12.37
2019-05-23T04:36:00.539Z,11.25
2019-05-23T04:38:29.134Z,11.00
2019-05-23T04:40:57.877Z,10.15
2019-05-23T04:43:26.462Z,10.45
2019-05-23T04:45:54.814Z,9.88
2019-05-23T04:48:24.438Z,8.95
2019-05-23T04:50:53.341Z,8.75
2019-05-23T04:53:22.084Z,9.35
2019-05-23T04:55:50.500Z,10.03
2019-05-23T04:58:19.193Z,11.60
2019-05-23T05:00:47.781Z,10.75
2019-05-23T05:03:18.229Z,11.65
2019-05-23T05:05:46.846Z,11.35
2019-05-23T05:08:16.651Z,11.83
2019-05-23T05:10:47.078Z,11.53
2019-05-23T05:13:15.858Z,12.03
2019-05-23T05:15:44.402Z,10.53
2019-05-23T05:18:13.135Z,9.75
2019-05-23T05:20:41.771Z,9.85
2019-05-23T05:23:10.135Z,9.60
2019-05-23T05:25:38.683Z,9.10
2019-05-23T05:28:07.517Z,10.18
2019-05-23T05:30:35.978Z,10.88
2019-05-23T05:33:04.361Z,9.03
2019-05-23T05:35:33.689Z,9.85
2019-05-23T05:38:02.081Z,10.72
2019-05-23T05:40:30.950Z,9.68
2019-05-23T05:42:59.801Z,9.38
2019-05-23T05:45:28.317Z,10.60
2019-05-23T05:47:57.011Z,9.95
2019-05-23T05:50:26.193Z,10.15
2019-05-23T05:52:54.796Z,10.08
2019-05-23T05:55:23.585Z,10.35
2019-05-23T05:57:52.158Z,9.95
2019-05-23T06:00:28.644Z,10.18
2019-05-23T06:03:04.553Z,9.23
2019-05-23T06:05:30.414Z,9.88
2019-05-23T06:07:58.993Z,9.58
2019-05-23T06:10:27.465Z,8.93
2019-05-23T06:12:55.936Z,9.05
2019-05-23T06:15:25.156Z,8.73
2019-05-23T06:17:53.614Z,9.55
2019-05-23T06:20:22.114Z,9.63
2019-05-23T06:22:52.214Z,7.87
2019-05-23T06:25:21.242Z,7.87
2019-05-23T06:27:49.813Z,7.50
2019-05-23T06:30:19.172Z,7.20
2019-05-23T06:32:47.796Z,7.83
2019-05-23T06:35:16.586Z,7.53
2019-05-23T06:37:45.485Z,8.23
2019-05-23T06:40:15.058Z,7.90
2019-05-23T06:42:44.241Z,7.42
2019-05-23T06:45:13.060Z,6.60
2019-05-23T06:47:42.476Z,6.05
2019-05-23T06:50:12.561Z,6.28
2019-05-23T06:52:41.275Z,6.37
2019-05-23T06:55:09.756Z,6.87
2019-05-23T06:57:38.238Z,6.53
2019-05-23T07:00:07.634Z,5.50
2019-05-23T07:02:36.209Z,5.65
2019-05-23T07:05:06.136Z,6.08
2019-05-23T07:07:36.241Z,6.25
2019-05-23T07:10:06.990Z,4.72
2019-05-23T07:12:35.666Z,4.95
2019-05-23T07:15:05.584Z,5.55
2019-05-23T07:17:34.891Z,5.80
2019-05-23T07:20:04.599Z,5.95
2019-05-23T07:22:33.390Z,5.53
2019-05-23T07:25:02.380Z,5.42
2019-05-23T07:27:32.086Z,5.40
2019-05-23T07:30:00.776Z,6.08
2019-05-23T07:32:29.244Z,5.25
2019-05-23T07:34:57.738Z,5.22
2019-05-23T07:37:26.208Z,5.22
2019-05-23T07:39:54.805Z,5.45
2019-05-23T07:42:23.479Z,4.65
2019-05-23T07:44:54.417Z,5.65
2019-05-23T07:47:23.322Z,5.20
2019-05-23T07:49:51.789Z,5.05
2019-05-23T07:52:20.388Z,5.45
2019-05-23T07:54:56.638Z,4.90
2019-05-23T07:57:25.744Z,6.00
2019-05-23T07:59:55.185Z,5.08
2019-05-23T08:02:35.676Z,4.90
2019-05-23T08:05:07.160Z,5.37
2019-05-23T08:07:36.050Z,6.10
2019-05-23T08:10:08.407Z,5.45
2019-05-23T08:12:38.911Z,4.90
2019-05-23T08:15:07.749Z,5.95
2019-05-23T08:17:36.487Z,6.15
2019-05-23T08:20:05.230Z,5.75
2019-05-23T08:22:33.585Z,5.78
2019-05-23T08:25:01.955Z,5.87
2019-05-23T08:27:30.558Z,5.92
2019-05-23T08:30:02.092Z,5.90
2019-05-23T08:32:29.300Z,6.40
2019-05-23T08:34:57.609Z,6.30
2019-05-23T08:37:26.107Z,7.00
2019-05-23T08:39:54.954Z,6.72
2019-05-23T08:42:23.779Z,6.30
2019-05-23T08:44:52.623Z,6.37
2019-05-23T08:47:21.512Z,7.40
2019-05-23T08:49:50.347Z,7.35
2019-05-23T08:52:18.721Z,6.45
2019-05-23T08:54:47.830Z,6.10
2019-05-23T08:57:17.355Z,6.62
2019-05-23T08:59:46.205Z,6.00
2019-05-23T09:02:16.362Z,6.62
2019-05-23T09:05:02.329Z,6.80
2019-05-23T09:07:15.339Z,7.22
2019-05-23T09:09:43.979Z,6.22
2019-05-23T09:12:12.570Z,5.47
2019-05-23T09:14:40.993Z,6.20
2019-05-23T09:17:09.731Z,6.58
2019-05-23T09:19:38.262Z,6.67
2019-05-23T09:22:06.760Z,6.53
2019-05-23T09:24:35.000Z,6.15
2019-05-23T09:27:04.829Z,6.40
2019-05-23T09:29:33.200Z,6.17
2019-05-23T09:32:01.691Z,6.53
2019-05-23T09:34:30.356Z,7.35
2019-05-23T09:37:00.497Z,6.12
2019-05-23T09:39:28.985Z,6.10
2019-05-23T09:41:57.352Z,6.17
2019-05-23T09:44:25.638Z,5.47
2019-05-23T09:46:54.002Z,5.90
2019-05-23T09:49:22.450Z,5.80
2019-05-23T09:51:54.591Z,5.12
2019-05-23T09:54:22.627Z,5.90
2019-05-23T09:56:52.234Z,5.95
2019-05-23T09:59:20.625Z,4.97
2019-05-23T10:01:49.002Z,4.70
2019-05-23T10:04:17.457Z,5.37
2019-05-23T10:06:46.404Z,5.42
2019-05-23T10:09:16.256Z,5.95
2019-05-23T10:11:44.653Z,6.42
2019-05-23T10:14:14.771Z,6.22
2019-05-23T10:16:43.136Z,5.53
2019-05-23T10:19:12.772Z,5.72
2019-05-23T10:21:41.152Z,5.08
2019-05-23T10:24:09.944Z,4.92
2019-05-23T10:26:38.421Z,5.00
2019-05-23T10:29:06.838Z,5.35
2019-05-23T10:31:35.207Z,6.03
2019-05-23T10:34:03.761Z,5.47
2019-05-23T10:36:32.221Z,4.72
2019-05-23T10:39:00.527Z,4.80
2019-05-23T10:41:29.400Z,3.90
2019-05-23T10:43:57.707Z,5.28
2019-05-23T10:46:26.225Z,5.28
2019-05-23T10:48:54.628Z,5.53
2019-05-23T10:51:22.981Z,5.03
2019-05-23T10:53:51.402Z,4.35
2019-05-23T10:56:21.019Z,3.87
2019-05-23T10:58:49.691Z,5.22
2019-05-23T11:01:18.923Z,5.58
2019-05-23T11:03:47.391Z,5.33
2019-05-23T11:06:17.108Z,4.58
2019-05-23T11:08:46.814Z,4.60
2019-05-23T11:11:15.542Z,4.83
2019-05-23T11:13:44.559Z,4.78
2019-05-23T11:16:13.145Z,4.08
2019-05-23T11:18:42.660Z,3.72
2019-05-23T11:21:11.254Z,3.40
2019-05-23T11:23:41.249Z,5.45
2019-05-23T11:26:09.946Z,5.25
2019-05-23T11:28:38.919Z,3.90
2019-05-23T11:31:08.934Z,4.22
2019-05-23T11:33:37.647Z,4.87
2019-05-23T11:36:06.789Z,4.53
2019-05-23T11:38:35.482Z,4.92
2019-05-23T11:41:03.897Z,3.85
2019-05-23T11:43:32.288Z,4.40
2019-05-23T11:46:06.096Z,3.67
2019-05-23T11:48:34.754Z,3.70
2019-05-23T11:51:03.256Z,6.12
2019-05-23T11:53:31.646Z,4.33
2019-05-23T11:55:59.936Z,4.37
2019-05-23T11:58:32.170Z,4.58
2019-05-23T12:01:01.476Z,5.08
2019-05-23T12:03:29.810Z,5.03
2019-05-23T12:05:58.328Z,4.65
2019-05-23T12:08:26.899Z,4.75
2019-05-23T12:10:55.253Z,4.22
2019-05-23T12:13:23.574Z,3.92
2019-05-23T12:15:52.193Z,5.03
2019-05-23T12:18:20.537Z,4.05
2019-05-23T12:20:48.913Z,4.25
2019-05-23T12:23:17.457Z,5.08
2019-05-23T12:25:46.290Z,4.65
2019-05-23T12:28:14.760Z,4.37
2019-05-23T12:30:43.135Z,5.40
2019-05-23T12:33:11.545Z,4.58
2019-05-23T12:35:39.850Z,4.78
2019-05-23T12:38:08.799Z,4.08
2019-05-23T12:40:37.271Z,4.10
2019-05-23T12:43:05.765Z,4.22
2019-05-23T12:45:35.163Z,4.55
2019-05-23T12:48:07.941Z,4.10
2019-05-23T12:50:43.788Z,4.12
2019-05-23T12:53:13.818Z,5.00
2019-05-23T12:55:42.284Z,5.10
2019-05-23T12:58:10.644Z,4.60
2019-05-23T13:00:40.882Z,4.60
2019-05-23T13:03:10.249Z,3.83
2019-05-23T13:05:39.099Z,4.22
2019-05-23T13:08:08.579Z,4.25
2019-05-23T13:10:37.028Z,4.55
2019-05-23T13:13:06.216Z,3.83
2019-05-23T13:15:39.176Z,4.35
2019-05-23T13:18:10.828Z,4.25
2019-05-23T13:20:43.449Z,3.75
2019-05-23T13:23:21.173Z,4.08
2019-05-23T13:25:49.379Z,3.60
2019-05-23T13:28:18.251Z,3.62
2019-05-23T13:30:48.766Z,3.55
2019-05-23T13:33:18.295Z,4.12
2019-05-23T13:35:49.226Z,3.37
2019-05-23T13:38:17.820Z,3.50
2019-05-23T13:40:46.379Z,3.67
2019-05-23T13:43:15.703Z,4.17
2019-05-23T13:45:45.029Z,4.70
2019-05-23T13:48:17.059Z,4.03
2019-05-23T13:50:45.597Z,3.95
2019-05-23T13:53:17.418Z,3.80
2019-05-23T13:55:47.183Z,3.42
2019-05-23T13:58:18.769Z,3.95
2019-05-23T14:00:48.066Z,3.52
2019-05-23T14:03:16.773Z,3.37
2019-05-23T14:05:45.634Z,3.27
2019-05-23T14:08:18.826Z,2.98
2019-05-23T14:10:45.473Z,3.50
2019-05-23T14:13:13.890Z,4.33
2019-05-23T14:15:44.279Z,4.33
2019-05-23T14:18:14.491Z,3.58
2019-05-23T14:20:43.257Z,3.62
2019-05-23T14:23:14.143Z,4.20
2019-05-23T14:25:44.359Z,4.05
2019-05-23T14:28:12.920Z,3.08
2019-05-23T14:30:50.215Z,3.22
2019-05-23T14:33:26.675Z,3.55
2019-05-23T14:36:02.946Z,4.15
2019-05-23T14:38:34.278Z,3.70
2019-05-23T14:41:02.922Z,3.08
2019-05-23T14:43:31.349Z,3.02
2019-05-23T14:46:11.720Z,3.30
2019-05-23T14:48:44.791Z,3.87
2019-05-23T14:51:31.100Z,3.98
2019-05-23T14:54:04.167Z,2.92
2019-05-23T14:56:34.210Z,3.55
2019-05-23T14:59:03.186Z,3.50
2019-05-23T15:01:34.336Z,3.55
2019-05-23T15:04:02.919Z,2.92
2019-05-23T15:06:32.203Z,3.92
2019-05-23T15:09:00.697Z,3.92
2019-05-23T15:11:29.185Z,3.87
2019-05-23T15:13:57.651Z,3.50
2019-05-23T15:16:26.553Z,3.02
2019-05-23T15:18:54.978Z,2.67
2019-05-23T15:21:23.182Z,3.27
2019-05-23T15:23:51.579Z,3.65
2019-05-23T15:26:23.362Z,3.60
2019-05-23T15:28:50.197Z,3.47
2019-05-23T15:31:19.856Z,2.98
2019-05-23T15:33:48.180Z,2.30
2019-05-23T15:36:16.887Z,2.40
2019-05-23T15:38:45.273Z,2.72
2019-05-23T15:41:13.807Z,3.42
2019-05-23T15:43:42.193Z,2.52
2019-05-23T15:46:10.485Z,2.10
2019-05-23T15:48:38.771Z,2.22
2019-05-23T15:51:07.221Z,2.10
2019-05-23T15:53:37.257Z,2.75
2019-05-23T15:56:25.947Z,2.37
2019-05-23T15:58:39.021Z,2.20
2019-05-23T16:01:11.706Z,2.60
2019-05-23T16:03:47.976Z,2.30
2019-05-23T16:06:17.894Z,2.42
2019-05-23T16:08:46.466Z,2.10
2019-05-23T16:11:17.542Z,2.37
2019-05-23T16:13:45.252Z,2.60
2019-05-23T16:16:13.588Z,2.35
2019-05-23T16:18:41.880Z,1.87
2019-05-23T16:21:11.235Z,2.45
2019-05-23T16:23:40.732Z,2.70
2019-05-23T16:26:11.574Z,2.37
2019-05-23T16:28:38.967Z,1.98
2019-05-23T16:31:07.501Z,2.25
2019-05-23T16:33:35.833Z,2.87
2019-05-23T16:36:04.557Z,1.90
2019-05-23T16:38:32.850Z,2.50
2019-05-23T16:41:01.159Z,2.00
2019-05-23T16:43:29.609Z,2.22
2019-05-23T16:45:59.644Z,2.17
2019-05-23T16:48:28.113Z,2.05
2019-05-23T16:50:56.468Z,1.70
2019-05-23T16:53:24.842Z,2.00
2019-05-23T16:56:12.991Z,2.22
2019-05-23T16:58:51.729Z,2.02
2019-05-23T17:01:24.894Z,2.20
2019-05-23T17:04:05.492Z,2.42
2019-05-23T17:06:35.705Z,3.22
2019-05-23T17:09:07.060Z,2.60
2019-05-23T17:11:43.213Z,2.10
2019-05-23T17:14:13.186Z,2.60
2019-05-23T17:16:45.985Z,2.65
2019-05-23T17:19:26.899Z,2.35
2019-05-23T17:22:13.171Z,2.42
2019-05-23T17:24:46.069Z,2.70
2019-05-23T17:27:18.878Z,2.10
2019-05-23T17:29:51.733Z,2.33
2019-05-23T17:32:28.096Z,2.45
2019-05-23T17:34:56.414Z,2.47
2019-05-23T17:37:25.496Z,2.83
2019-05-23T17:39:53.893Z,2.75
2019-05-23T17:42:23.535Z,2.87
2019-05-23T17:44:52.145Z,2.80
2019-05-23T17:47:20.495Z,2.72
2019-05-23T17:49:48.984Z,2.92
2019-05-23T17:52:19.024Z,2.65
2019-05-23T17:54:47.382Z,2.95
2019-05-23T17:57:16.165Z,3.05
2019-05-23T17:59:44.468Z,3.62
2019-05-23T18:02:12.888Z,3.50
2019-05-23T18:04:41.537Z,4.20
2019-05-23T18:07:10.497Z,4.90
2019-05-23T18:09:38.999Z,5.22
2019-05-23T18:12:08.594Z,6.05
2019-05-23T18:14:37.353Z,6.62
2019-05-23T18:17:06.678Z,6.90
2019-05-23T18:19:35.565Z,6.70
2019-05-23T18:22:05.723Z,7.58
2019-05-23T18:24:35.093Z,7.58
2019-05-23T18:27:03.894Z,8.50
2019-05-23T18:29:32.183Z,9.35
2019-05-23T18:32:02.289Z,10.63
2019-05-23T18:34:31.187Z,9.95
2019-05-23T18:36:59.729Z,8.90
2019-05-23T18:39:29.766Z,7.12
2019-05-23T18:41:58.102Z,7.17
2019-05-23T18:44:26.539Z,6.95
2019-05-23T18:46:56.765Z,6.25
2019-05-23T18:49:25.649Z,6.70
2019-05-23T18:51:54.133Z,6.58
2019-05-23T18:54:22.905Z,6.53
2019-05-23T18:56:51.516Z,6.75
2019-05-23T18:59:20.368Z,6.15
2019-05-23T19:01:49.047Z,7.08
2019-05-23T19:04:17.336Z,6.80
2019-05-23T19:06:46.140Z,7.22
2019-05-23T19:09:15.429Z,7.05
2019-05-23T19:11:44.437Z,7.33
2019-05-23T19:14:13.070Z,6.25
2019-05-23T19:16:41.506Z,7.05
2019-05-23T19:19:10.291Z,7.20
2019-05-23T19:21:38.830Z,6.80
2019-05-23T19:24:07.508Z,7.22
2019-05-23T19:26:36.255Z,7.42
2019-05-23T19:29:05.148Z,6.72
2019-05-23T19:31:34.083Z,6.83
2019-05-23T19:34:02.500Z,6.83
2019-05-23T19:36:30.830Z,6.92
2019-05-23T19:38:59.604Z,7.55
2019-05-23T19:41:37.647Z,7.35
2019-05-23T19:43:58.434Z,7.58
2019-05-23T19:46:26.806Z,6.75
2019-05-23T19:48:55.225Z,7.40
2019-05-23T19:51:23.692Z,8.05
2019-05-23T19:53:52.221Z,7.95
2019-05-23T19:56:21.780Z,7.20
2019-05-23T19:58:50.152Z,7.72
2019-05-23T20:01:18.753Z,7.17
2019-05-23T20:03:47.840Z,8.78
2019-05-23T20:06:16.221Z,8.73
2019-05-23T20:08:45.563Z,8.50
2019-05-23T20:11:13.997Z,7.85
2019-05-23T20:13:42.384Z,8.50
2019-05-23T20:16:11.133Z,9.05
2019-05-23T20:18:39.593Z,9.95
2019-05-23T20:21:08.242Z,8.50
2019-05-23T20:23:36.738Z,8.73
2019-05-23T20:26:07.974Z,8.75
2019-05-23T20:28:35.327Z,8.10
2019-05-23T20:31:04.100Z,9.35
2019-05-23T20:33:32.594Z,8.35
2019-05-23T20:36:02.725Z,9.95
2019-05-23T20:38:31.594Z,9.13
2019-05-23T20:41:00.093Z,9.80
2019-05-23T20:43:28.557Z,11.10
2019-05-23T20:45:57.059Z,10.72
2019-05-23T20:48:25.943Z,10.95
2019-05-23T20:50:54.315Z,9.33
2019-05-23T20:53:22.708Z,10.60
2019-05-23T20:55:51.168Z,10.03
2019-05-23T20:58:20.161Z,10.30
2019-05-23T21:00:50.390Z,10.35
2019-05-23T21:03:20.113Z,11.15
2019-05-23T21:05:48.574Z,10.53
2019-05-23T21:08:17.179Z,12.63
2019-05-23T21:10:46.362Z,11.28
2019-05-23T21:13:14.843Z,12.15
2019-05-23T21:15:43.642Z,12.03
2019-05-23T21:18:12.342Z,11.88
2019-05-23T21:20:40.894Z,10.90
2019-05-23T21:23:09.237Z,13.20
2019-05-23T21:25:40.621Z,12.75
2019-05-23T21:28:10.137Z,11.57
2019-05-23T21:30:38.481Z,12.68
2019-05-23T21:33:08.542Z,12.33
2019-05-23T21:35:36.804Z,12.40
2019-05-23T21:38:05.223Z,10.65
2019-05-23T21:40:36.224Z,11.28
2019-05-23T21:43:04.818Z,9.53
2019-05-23T21:45:33.600Z,9.85
2019-05-23T21:48:01.988Z,8.98
2019-05-23T21:50:30.446Z,8.85
2019-05-23T21:52:58.820Z,8.45
2019-05-23T21:55:40.228Z,8.48
2019-05-23T21:58:08.906Z,9.78
2019-05-23T22:01:07.833Z,8.70
2019-05-23T22:03:56.052Z,8.08
2019-05-23T22:06:32.332Z,8.40
2019-05-23T22:09:02.381Z,8.10
2019-05-23T22:11:31.225Z,7.55
2019-05-23T22:13:59.690Z,8.48
2019-05-23T22:16:28.264Z,7.12
2019-05-23T22:18:56.829Z,7.70
2019-05-23T22:21:25.487Z,7.72
2019-05-23T22:23:53.937Z,7.75
2019-05-23T22:26:22.707Z,7.72
2019-05-23T22:28:52.119Z,8.00
2019-05-23T22:31:21.202Z,7.65
2019-05-23T22:34:09.052Z,8.23
2019-05-23T22:36:37.512Z,7.80
2019-05-23T22:39:07.021Z,9.00
2019-05-23T22:41:36.328Z,7.95
2019-05-23T22:44:05.676Z,7.15
2019-05-23T22:46:34.838Z,7.15
2019-05-23T22:49:03.209Z,7.90
2019-05-23T22:51:31.602Z,7.33
2019-05-23T22:53:59.959Z,7.00
2019-05-23T22:56:28.329Z,7.33
2019-05-23T22:58:56.812Z,7.30
2019-05-23T23:01:27.820Z,7.83
2019-05-23T23:03:56.212Z,6.97
2019-05-23T23:06:24.825Z,7.53
2019-05-23T23:08:53.319Z,6.83
2019-05-23T23:11:21.772Z,7.28
2019-05-23T23:13:50.183Z,7.35
2019-05-23T23:16:18.576Z,6.40
2019-05-23T23:18:47.193Z,6.42
2019-05-23T23:21:15.726Z,5.95
2019-05-23T23:23:44.068Z,6.87
2019-05-23T23:26:12.386Z,6.92
2019-05-23T23:28:40.736Z,6.83
2019-05-23T23:31:09.235Z,6.85
2019-05-23T23:33:37.721Z,6.30
2019-05-23T23:36:06.065Z,6.33
2019-05-23T23:38:34.452Z,6.67
2019-05-23T23:41:03.014Z,6.85
2019-05-23T23:43:31.278Z,6.70
2019-05-23T23:46:17.830Z,6.70
2019-05-23T23:49:04.552Z,6.85
2019-05-23T23:51:51.233Z,6.60
2019-05-23T23:54:39.200Z,6.80
2019-05-23T23:57:25.685Z,7.17
2019-05-23T23:59:53.753Z,7.15
